Time;durP1;ratioP1;P1;durP2;ratioP2;P2;SDS_P1;SDS_P2;PMS_P1;PMS_P2;Temp;Humidity;BMP_temperature;BMP_pressure;BME280_temperature;BME280_humidity;BME280_pressure;Samples;Min_cycle;Max_cycle;Signal;HPM_P1;HPM_P2
2021/07/17 00:01:17;;;;;;;25.60;15.63;;;;;;;21.19;100.00;101056.19;5041412;28;20068;-79
2021/07/17 00:03:45;;;;;;;19.92;14.82;;;;;;;21.19;100.00;101057.03;5007613;28;20037;-81
2021/07/17 00:06:12;;;;;;;18.58;13.90;;;;;;;21.17;100.00;101060.84;5024465;28;20119;-80
2021/07/17 00:08:39;;;;;;;16.95;14.45;;;;;;;21.21;100.00;101054.22;5011611;28;20038;-80
2021/07/17 00:11:06;;;;;;;17.08;14.23;;;;;;;21.18;100.00;101055.34;5032090;28;20474;-81
2021/07/17 00:13:34;;;;;;;21.67;14.95;;;;;;;21.19;100.00;101069.56;5028737;28;20042;-79
2021/07/17 00:16:01;;;;;;;24.05;14.63;;;;;;;21.05;100.00;101060.19;5033301;28;20140;-82
2021/07/17 00:18:28;;;;;;;19.77;15.00;;;;;;;21.02;100.00;101054.28;5013111;28;20040;-80
2021/07/17 00:20:56;;;;;;;24.45;14.63;;;;;;;21.03;100.00;101061.31;5024757;28;20133;-81
2021/07/17 00:23:23;;;;;;;23.33;15.85;;;;;;;21.07;100.00;101065.41;5002731;28;20045;-83
2021/07/17 00:25:53;;;;;;;27.27;14.18;;;;;;;21.04;100.00;101063.03;5009005;28;20172;-83
2021/07/17 00:28:20;;;;;;;22.98;15.25;;;;;;;21.09;100.00;101063.44;5030177;28;20075;-81
2021/07/17 00:30:48;;;;;;;15.50;13.88;;;;;;;21.08;100.00;101062.59;5032786;28;20053;-81
2021/07/17 00:33:15;;;;;;;18.13;13.95;;;;;;;21.16;100.00;101062.69;4993009;28;20045;-79
2021/07/17 00:35:42;;;;;;;16.73;14.02;;;;;;;21.20;100.00;101066.72;5004287;28;20116;-83
2021/07/17 00:38:09;;;;;;;16.75;12.95;;;;;;;21.16;100.00;101065.38;5008107;28;20063;-80
2021/07/17 00:40:37;;;;;;;21.27;14.40;;;;;;;21.11;100.00;101061.44;5011454;28;20128;-82
2021/07/17 00:43:04;;;;;;;23.92;14.38;;;;;;;20.99;100.00;101056.28;5016459;28;20130;-82
2021/07/17 00:45:31;;;;;;;19.50;13.90;;;;;;;21.02;100.00;101067.66;5028967;28;20069;-79
2021/07/17 00:47:58;;;;;;;23.25;14.57;;;;;;;21.03;100.00;101059.50;5000913;28;20132;-80
2021/07/17 00:50:29;;;;;;;17.33;14.35;;;;;;;20.97;100.00;101068.94;5008483;28;20057;-83
2021/07/17 00:52:56;;;;;;;22.55;13.60;;;;;;;21.06;100.00;101069.91;5028139;28;20045;-82
2021/07/17 00:55:26;;;;;;;20.05;13.40;;;;;;;20.98;100.00;101077.81;5020980;28;20152;-84
2021/07/17 00:57:53;;;;;;;21.88;14.18;;;;;;;20.94;100.00;101074.63;5021567;28;20136;-83
2021/07/17 01:00:21;;;;;;;18.13;13.32;;;;;;;21.05;100.00;101083.44;5000416;28;20051;-80
2021/07/17 01:02:51;;;;;;;19.02;13.20;;;;;;;21.08;100.00;101073.28;4998400;28;20398;-80
2021/07/17 01:05:19;;;;;;;21.90;12.82;;;;;;;21.02;100.00;101079.22;5010830;28;20123;-81
2021/07/17 01:07:46;;;;;;;26.88;14.38;;;;;;;21.04;100.00;101074.56;5003263;28;20054;-80
2021/07/17 01:10:18;;;;;;;18.55;13.75;;;;;;;21.12;100.00;101074.69;5009948;28;20037;-81
2021/07/17 01:12:49;;;;;;;16.95;12.70;;;;;;;21.05;100.00;101068.22;5002735;28;20370;-82
2021/07/17 01:15:17;;;;;;;20.35;13.82;;;;;;;21.08;100.00;101073.28;5017676;28;20096;-80
2021/07/17 01:17:47;;;;;;;14.77;12.85;;;;;;;21.10;100.00;101071.31;5002982;28;20128;-80
2021/07/17 01:20:18;;;;;;;26.75;13.80;;;;;;;20.99;100.00;101075.03;5013686;28;20111;-80
2021/07/17 01:22:46;;;;;;;24.15;13.45;;;;;;;21.02;100.00;101075.69;5007533;28;20071;-80
2021/07/17 01:25:22;;;;;;;15.65;11.70;;;;;;;20.96;100.00;101069.94;5011505;28;20175;-84
2021/07/17 01:27:51;;;;;;;18.58;11.80;;;;;;;20.99;100.00;101084.88;4994359;28;20040;-81
2021/07/17 01:30:21;;;;;;;18.13;11.90;;;;;;;20.98;100.00;101077.81;5029038;28;20201;-81
2021/07/17 01:32:48;;;;;;;17.13;11.85;;;;;;;20.94;100.00;101079.13;5003029;28;20055;-82
2021/07/17 01:35:15;;;;;;;21.30;12.77;;;;;;;20.91;100.00;101084.78;5018321;28;20346;-82
2021/07/17 01:37:43;;;;;;;18.92;12.25;;;;;;;20.88;100.00;101080.53;5029158;28;20045;-82
2021/07/17 01:40:18;;;;;;;13.95;10.88;;;;;;;20.98;100.00;101072.47;5037691;28;20069;-81
2021/07/17 01:42:49;;;;;;;18.88;11.95;;;;;;;20.93;100.00;101077.41;5007991;28;20084;-84
2021/07/17 01:45:35;;;;;;;18.58;12.38;;;;;;;21.06;100.00;101077.94;5018540;28;20492;-80
2021/07/17 01:48:03;;;;;;;19.10;11.25;;;;;;;20.95;100.00;101076.31;5026109;28;20101;-86
2021/07/17 01:50:32;;;;;;;18.05;12.15;;;;;;;20.97;100.00;101076.16;5025187;28;20051;-83
2021/07/17 01:53:00;;;;;;;14.35;11.30;;;;;;;20.98;100.00;101067.13;4994768;28;20138;-83
2021/07/17 01:55:27;;;;;;;20.02;11.80;;;;;;;20.94;100.00;101069.28;4999815;28;20096;-81
2021/07/17 01:57:55;;;;;;;17.27;11.82;;;;;;;20.96;100.00;101061.09;5014761;28;20110;-82
2021/07/17 02:00:22;;;;;;;20.50;11.27;;;;;;;20.96;100.00;101069.94;5037498;28;20042;-82
2021/07/17 02:02:50;;;;;;;20.90;11.73;;;;;;;21.02;100.00;101065.00;5007116;28;20512;-79
2021/07/17 02:05:19;;;;;;;16.65;11.38;;;;;;;20.98;100.00;101069.78;5006444;28;20049;-81
2021/07/17 02:07:47;;;;;;;13.43;10.80;;;;;;;21.03;100.00;101070.22;5009920;28;20523;-82
2021/07/17 02:10:17;;;;;;;16.80;11.27;;;;;;;21.04;100.00;101063.03;5013603;28;20049;-79
2021/07/17 02:12:56;;;;;;;15.23;11.52;;;;;;;21.04;100.00;101068.38;5002400;28;20148;-80
2021/07/17 02:15:23;;;;;;;17.13;12.30;;;;;;;21.01;100.00;101066.84;5030336;28;20197;-81
2021/07/17 02:17:50;;;;;;;13.07;11.52;;;;;;;21.02;100.00;101056.97;5004869;28;20113;-80
2021/07/17 02:20:18;;;;;;;13.10;11.38;;;;;;;21.02;100.00;101052.44;5028395;28;20552;-81
2021/07/17 02:22:45;;;;;;;19.85;11.52;;;;;;;21.03;100.00;101048.81;4997565;28;20140;-79
2021/07/17 02:25:12;;;;;;;16.05;11.20;;;;;;;20.94;100.00;101049.69;5023352;28;20233;-83
2021/07/17 02:27:40;;;;;;;17.60;11.82;;;;;;;20.88;100.00;101047.59;4997763;28;20133;-80
2021/07/17 02:30:09;;;;;;;17.10;12.13;;;;;;;20.82;100.00;101050.84;5021414;28;20083;-80
2021/07/17 02:32:36;;;;;;;15.90;11.25;;;;;;;20.73;100.00;101042.72;5021794;28;20088;-79
2021/07/17 02:35:04;;;;;;;17.65;11.85;;;;;;;20.66;100.00;101046.09;5047088;28;20095;-80
2021/07/17 02:37:32;;;;;;;14.73;10.80;;;;;;;20.65;100.00;101050.63;5007997;28;20136;-81
2021/07/17 02:40:03;;;;;;;18.45;11.93;;;;;;;20.75;100.00;101045.22;5010146;28;20496;-80
2021/07/17 02:42:33;;;;;;;14.50;10.35;;;;;;;20.67;100.00;101037.13;5010783;28;20056;-80
2021/07/17 02:45:01;;;;;;;20.40;11.40;;;;;;;20.56;100.00;101043.47;4995342;28;20088;-81
2021/07/17 02:47:28;;;;;;;20.10;12.43;;;;;;;20.59;100.00;101045.84;5030790;28;20711;-82
2021/07/17 02:49:55;;;;;;;22.67;11.55;;;;;;;20.50;100.00;101045.88;5008195;28;20083;-79
2021/07/17 02:52:22;;;;;;;14.90;11.18;;;;;;;20.50;100.00;101054.75;5011106;28;20253;-79
2021/07/17 02:54:50;;;;;;;17.00;11.07;;;;;;;20.51;100.00;101052.91;4985792;28;20065;-78
2021/07/17 02:57:17;;;;;;;19.45;12.20;;;;;;;20.58;100.00;101054.88;5012128;28;20667;-83
2021/07/17 02:59:44;;;;;;;18.05;11.20;;;;;;;20.62;100.00;101050.91;5002474;28;20056;-79
2021/07/17 03:02:11;;;;;;;15.32;10.88;;;;;;;20.53;100.00;101049.09;5021788;28;20438;-81
2021/07/17 03:04:39;;;;;;;15.10;10.32;;;;;;;20.51;100.00;101048.41;5016306;28;20061;-80
2021/07/17 03:07:06;;;;;;;17.25;10.57;;;;;;;20.43;100.00;101053.59;5009899;28;20054;-83
2021/07/17 03:09:33;;;;;;;17.80;10.90;;;;;;;20.54;100.00;101058.81;5004876;28;20049;-82
2021/07/17 03:12:01;;;;;;;16.52;10.98;;;;;;;20.57;100.00;101057.69;5012608;28;20104;-86
2021/07/17 03:14:29;;;;;;;13.90;10.27;;;;;;;20.62;100.00;101058.91;5037234;28;20041;-83
2021/07/17 03:17:00;;;;;;;18.05;10.45;;;;;;;20.65;100.00;101057.81;4995992;28;20133;-79
2021/07/17 03:19:28;;;;;;;17.35;9.38;;;;;;;20.72;100.00;101058.91;5015027;28;20044;-81
2021/07/17 03:21:55;;;;;;;15.45;9.90;;;;;;;20.83;100.00;101056.06;4992488;28;20056;-81
2021/07/17 03:24:23;;;;;;;16.80;9.40;;;;;;;20.87;100.00;101059.28;5013856;28;20045;-83
2021/07/17 03:26:50;;;;;;;13.85;9.88;;;;;;;20.83;100.00;101061.41;5017272;28;20457;-80
2021/07/17 03:29:17;;;;;;;14.70;10.07;;;;;;;20.72;100.00;101066.94;5029284;28;20049;-79
2021/07/17 03:31:44;;;;;;;15.05;10.30;;;;;;;20.82;100.00;101059.72;5034033;28;20364;-80
2021/07/17 03:34:12;;;;;;;15.45;10.15;;;;;;;20.82;100.00;101065.06;4989450;28;20129;-84
2021/07/17 03:36:39;;;;;;;14.85;9.15;;;;;;;20.87;99.94;101059.28;5009981;28;20488;-78
2021/07/17 03:39:10;;;;;;;16.48;9.07;;;;;;;20.84;99.68;101062.25;4989314;28;20046;-79
2021/07/17 03:41:37;;;;;;;17.70;10.23;;;;;;;20.95;99.10;101062.06;5001466;28;20535;-78
2021/07/17 03:44:06;;;;;;;18.33;9.65;;;;;;;20.93;98.89;101062.19;4983906;28;20047;-81
2021/07/17 03:46:33;;;;;;;15.13;9.32;;;;;;;21.00;97.48;101051.78;4989902;28;20132;-81
2021/07/17 03:49:01;;;;;;;14.73;9.48;;;;;;;21.05;96.65;101062.03;5005274;28;20053;-80
2021/07/17 03:51:28;;;;;;;17.35;9.32;;;;;;;21.01;96.60;101060.63;5012887;28;20120;-80
2021/07/17 03:53:55;;;;;;;11.45;9.20;;;;;;;20.86;97.35;101055.78;5000128;28;20504;-81
2021/07/17 03:56:23;;;;;;;20.45;8.95;;;;;;;20.98;98.49;101064.44;5029771;28;20053;-83
2021/07/17 03:58:50;;;;;;;11.95;8.43;;;;;;;20.97;97.18;101058.25;5019459;28;20033;-79
2021/07/17 04:01:17;;;;;;;12.85;8.77;;;;;;;21.01;95.95;101071.34;5031834;28;20037;-79
2021/07/17 04:03:47;;;;;;;12.32;8.73;;;;;;;21.05;96.03;101070.06;5026868;28;20064;-81
2021/07/17 04:06:15;;;;;;;13.43;9.18;;;;;;;20.93;96.59;101074.75;5030664;28;20462;-82
2021/07/17 04:08:42;;;;;;;14.52;10.02;;;;;;;20.83;96.64;101081.97;5005180;28;20040;-82
2021/07/17 04:11:09;;;;;;;19.38;9.50;;;;;;;20.74;97.95;101086.38;5018352;28;20049;-78
2021/07/17 04:13:36;;;;;;;17.17;9.10;;;;;;;20.80;97.22;101088.44;5019843;28;20056;-81
2021/07/17 04:16:05;;;;;;;15.80;8.55;;;;;;;20.81;96.97;101087.47;5007756;28;20136;-80
2021/07/17 04:18:32;;;;;;;14.48;8.55;;;;;;;20.99;96.17;101093.75;5011470;28;20380;-82
2021/07/17 04:20:59;;;;;;;12.60;8.40;;;;;;;21.12;94.92;101096.09;5020574;28;20047;-79
2021/07/17 04:23:27;;;;;;;15.00;8.93;;;;;;;21.23;94.30;101087.88;5031112;28;20049;-81
2021/07/17 04:25:54;;;;;;;12.38;9.15;;;;;;;21.17;94.56;101091.16;5026653;28;20503;-82
2021/07/17 04:28:21;;;;;;;11.48;8.45;;;;;;;21.19;94.51;101091.84;5035403;28;20174;-80
2021/07/17 04:30:48;;;;;;;11.57;8.32;;;;;;;21.08;96.00;101092.03;5003736;28;20063;-81
2021/07/17 04:33:16;;;;;;;14.75;9.30;;;;;;;21.11;95.86;101090.88;5025605;28;20048;-77
2021/07/17 04:35:43;;;;;;;11.48;8.63;;;;;;;21.26;95.17;101088.59;4998436;28;20058;-81
2021/07/17 04:38:10;;;;;;;15.88;8.93;;;;;;;21.30;95.23;101089.94;5014143;28;20464;-79
2021/07/17 04:40:37;;;;;;;14.07;9.55;;;;;;;21.19;96.14;101091.84;5022750;28;20132;-81
2021/07/17 04:43:05;;;;;;;15.63;10.55;;;;;;;21.10;97.34;101094.56;5014511;28;20344;-81
2021/07/17 04:45:33;;;;;;;18.85;10.35;;;;;;;21.01;98.43;101095.44;5018314;28;20095;-79
2021/07/17 04:48:04;;;;;;;17.85;11.05;;;;;;;20.92;99.85;101089.13;4989917;28;20311;-80
2021/07/17 04:50:37;;;;;;;18.50;10.98;;;;;;;20.95;100.00;101088.84;5016574;28;20053;-84
2021/07/17 04:53:05;;;;;;;17.17;11.02;;;;;;;21.17;99.78;101090.31;4990552;28;20045;-80
2021/07/17 04:55:33;;;;;;;15.38;10.98;;;;;;;21.43;98.44;101088.66;5003324;28;20052;-82
2021/07/17 04:58:01;;;;;;;19.52;10.52;;;;;;;21.67;96.49;101082.72;4987756;28;20042;-80
2021/07/17 05:00:28;;;;;;;17.13;10.48;;;;;;;21.73;96.57;101086.63;4996304;28;20140;-81
2021/07/17 05:02:56;;;;;;;26.23;12.10;;;;;;;21.93;94.81;101084.63;4992991;28;20095;-81
2021/07/17 05:05:24;;;;;;;19.52;11.50;;;;;;;21.95;94.50;101085.34;4997815;28;20050;-81
2021/07/17 05:07:52;;;;;;;16.80;10.98;;;;;;;21.95;94.52;101088.03;5008178;28;20156;-83
2021/07/17 05:10:21;;;;;;;22.10;11.75;;;;;;;21.95;95.44;101074.63;5018377;28;20043;-79
2021/07/17 05:12:49;;;;;;;18.92;10.38;;;;;;;21.96;94.64;101087.84;4987621;28;20050;-80
2021/07/17 05:15:16;;;;;;;18.92;11.25;;;;;;;21.92;95.42;101085.63;5004532;28;20046;-82
2021/07/17 05:17:43;;;;;;;16.85;12.38;;;;;;;22.02;95.10;101091.78;4997789;28;20075;-83
2021/07/17 05:20:11;;;;;;;18.85;12.32;;;;;;;21.91;95.54;101094.69;5022206;28;20136;-82
2021/07/17 05:22:38;;;;;;;21.15;13.07;;;;;;;21.75;96.53;101092.69;5009111;28;20195;-84
2021/07/17 05:25:07;;;;;;;18.02;14.13;;;;;;;21.53;98.99;101095.81;5014640;28;20041;-81
2021/07/17 05:27:34;;;;;;;20.73;14.55;;;;;;;21.46;99.61;101092.84;4980109;28;20049;-86
2021/07/17 05:30:03;;;;;;;18.33;13.48;;;;;;;21.64;99.41;101084.84;5006870;28;20084;-82
2021/07/17 05:32:30;;;;;;;18.35;13.57;;;;;;;21.88;97.88;101100.34;4990983;28;20220;-82
2021/07/17 05:34:57;;;;;;;17.52;13.18;;;;;;;21.92;97.84;101096.34;5033318;28;20053;-86
2021/07/17 05:37:25;;;;;;;25.60;14.18;;;;;;;21.83;97.81;101097.28;5014701;28;20497;-83
2021/07/17 05:39:53;;;;;;;19.50;14.55;;;;;;;21.82;98.31;101101.78;4984530;28;20045;-85
2021/07/17 05:42:20;;;;;;;19.40;13.70;;;;;;;21.97;97.51;101094.94;5014999;28;20057;-83
2021/07/17 05:44:47;;;;;;;18.20;13.48;;;;;;;22.02;97.44;101105.19;4995637;28;20069;-80
2021/07/17 05:47:15;;;;;;;21.90;15.15;;;;;;;22.03;97.99;101093.47;5005142;28;20048;-81
2021/07/17 05:49:42;;;;;;;18.15;14.02;;;;;;;22.00;98.42;101099.13;5025635;28;20144;-81
2021/07/17 05:52:10;;;;;;;21.75;15.73;;;;;;;21.94;98.90;101091.72;5008072;28;20050;-83
2021/07/17 05:54:37;;;;;;;19.05;15.05;;;;;;;21.87;99.39;101098.66;5005741;28;20383;-81
2021/07/17 05:57:06;;;;;;;22.55;16.52;;;;;;;21.59;100.00;101098.72;5030371;28;20053;-84
2021/07/17 05:59:33;;;;;;;23.30;17.33;;;;;;;21.68;100.00;101108.53;4975280;28;20057;-83
2021/07/17 06:02:00;;;;;;;20.30;14.55;;;;;;;21.73;100.00;101100.03;4985308;28;20064;-84
2021/07/17 06:04:29;;;;;;;21.80;16.25;;;;;;;21.82;100.00;101107.16;4997051;28;20184;-81
2021/07/17 06:06:56;;;;;;;24.50;16.52;;;;;;;21.84;100.00;101107.00;5013353;28;20149;-85
2021/07/17 06:09:24;;;;;;;26.67;16.67;;;;;;;21.88;100.00;101117.25;4995633;28;20034;-83
2021/07/17 06:11:51;;;;;;;22.65;16.67;;;;;;;21.86;100.00;101126.47;5012018;28;21470;-81
2021/07/17 06:14:19;;;;;;;24.70;17.45;;;;;;;21.47;100.00;101119.50;4979572;28;20129;-86
2021/07/17 06:16:46;;;;;;;21.98;17.02;;;;;;;21.47;100.00;101118.66;5010132;28;20042;-81
2021/07/17 06:19:13;;;;;;;24.55;17.58;;;;;;;21.54;100.00;101110.88;5016713;28;20140;-82
2021/07/17 06:21:41;;;;;;;27.35;18.42;;;;;;;21.45;100.00;101123.31;5017368;28;20437;-81
2021/07/17 06:24:08;;;;;;;21.83;18.60;;;;;;;21.34;100.00;101121.66;4977142;28;20124;-81
2021/07/17 06:26:35;;;;;;;21.67;18.75;;;;;;;21.31;100.00;101121.97;4992001;28;20056;-82
2021/07/17 06:29:02;;;;;;;22.08;17.80;;;;;;;21.45;100.00;101112.59;5029793;28;20029;-83
2021/07/17 06:31:30;;;;;;;26.35;17.30;;;;;;;21.63;100.00;101120.69;4999084;28;20095;-85
2021/07/17 06:33:57;;;;;;;20.48;17.85;;;;;;;21.84;100.00;101117.72;5034446;28;20127;-81
2021/07/17 06:36:24;;;;;;;20.20;17.40;;;;;;;21.87;100.00;101122.78;5033104;28;20152;-81
2021/07/17 06:38:51;;;;;;;32.25;18.98;;;;;;;21.89;100.00;101126.16;5010172;28;20152;-84
2021/07/17 06:41:19;;;;;;;24.85;19.08;;;;;;;21.68;100.00;101129.13;5034759;28;20045;-83
2021/07/17 06:43:46;;;;;;;25.77;18.80;;;;;;;21.76;100.00;101136.41;4990923;28;20048;-82
2021/07/17 06:46:13;;;;;;;25.90;18.08;;;;;;;22.01;100.00;101143.69;4998318;28;20520;-86
2021/07/17 06:48:41;;;;;;;28.00;18.77;;;;;;;21.98;100.00;101142.19;4998946;28;20129;-82
2021/07/17 06:51:11;;;;;;;27.23;18.27;;;;;;;22.17;100.00;101143.91;5038724;28;20057;-82
2021/07/17 06:53:38;;;;;;;28.15;20.13;;;;;;;22.29;100.00;101146.34;5001742;28;20557;-82
2021/07/17 06:56:05;;;;;;;22.60;18.45;;;;;;;22.30;100.00;101142.69;4984333;28;20084;-81
2021/07/17 06:58:33;;;;;;;22.92;18.88;;;;;;;22.21;100.00;101136.41;5007011;28;20068;-80
2021/07/17 07:01:00;;;;;;;25.13;19.35;;;;;;;22.33;100.00;101145.03;5038492;28;20085;-81
2021/07/17 07:03:28;;;;;;;23.08;18.70;;;;;;;22.11;100.00;101147.19;4998636;28;20095;-83
2021/07/17 07:05:57;;;;;;;27.05;18.98;;;;;;;22.02;100.00;101144.53;5040167;28;20052;-80
2021/07/17 07:08:25;;;;;;;26.77;19.50;;;;;;;22.12;100.00;101150.72;5018919;28;20136;-83
2021/07/17 07:10:52;;;;;;;22.17;19.80;;;;;;;22.30;100.00;101154.25;5023587;28;20059;-81
2021/07/17 07:13:24;;;;;;;28.38;20.15;;;;;;;22.17;100.00;101151.13;5016688;28;20134;-86
2021/07/17 07:15:53;;;;;;;25.92;18.83;;;;;;;22.30;100.00;101154.25;5040894;28;20053;-84
2021/07/17 07:18:20;;;;;;;24.40;19.50;;;;;;;22.33;100.00;101158.44;5010530;28;20088;-82
2021/07/17 07:20:48;;;;;;;25.25;19.73;;;;;;;22.85;100.00;101151.34;5033005;28;20037;-80
2021/07/17 07:23:15;;;;;;;23.30;18.13;;;;;;;23.25;96.62;101156.13;5017906;28;20049;-80
2021/07/17 07:25:42;;;;;;;23.27;18.05;;;;;;;23.36;95.02;101156.84;5040007;28;20034;-82
2021/07/17 07:28:10;;;;;;;22.70;18.63;;;;;;;23.19;96.80;101155.91;4995153;28;20049;-83
2021/07/17 07:30:37;;;;;;;20.52;16.88;;;;;;;23.47;95.60;101153.91;5018842;28;20510;-80
2021/07/17 07:33:04;;;;;;;27.98;17.10;;;;;;;23.84;92.00;101166.16;5034292;28;20072;-83
2021/07/17 07:35:31;;;;;;;22.80;16.60;;;;;;;23.41;93.71;101165.28;4991182;28;20049;-81
2021/07/17 07:37:59;;;;;;;22.08;16.35;;;;;;;23.59;94.05;101157.97;4991943;28;20099;-81
2021/07/17 07:40:29;;;;;;;20.38;16.23;;;;;;;23.55;93.20;101162.00;5032761;28;20041;-82
2021/07/17 07:42:59;;;;;;;18.63;16.27;;;;;;;23.30;95.31;101162.88;5009021;28;20067;-81
2021/07/17 07:45:26;;;;;;;18.35;15.50;;;;;;;22.99;96.37;101156.16;5003943;28;20488;-84
2021/07/17 07:47:54;;;;;;;20.90;16.05;;;;;;;23.07;96.95;101163.41;5010356;28;20053;-82
2021/07/17 07:50:21;;;;;;;23.77;15.63;;;;;;;23.19;96.28;101164.84;4985373;28;20058;-83
2021/07/17 07:52:49;;;;;;;19.98;16.45;;;;;;;23.48;95.08;101164.47;5021133;28;20049;-83
2021/07/17 07:55:17;;;;;;;18.15;15.02;;;;;;;23.53;94.65;101158.63;4997932;28;20033;-82
2021/07/17 07:57:44;;;;;;;21.20;15.23;;;;;;;23.64;91.81;101157.47;4974905;28;20576;-85
2021/07/17 08:00:13;;;;;;;16.23;14.38;;;;;;;23.50;92.76;101156.25;5013336;28;20481;-82
2021/07/17 08:02:55;;;;;;;18.08;14.23;;;;;;;23.64;92.78;101152.09;4996326;28;20088;-81
2021/07/17 08:05:25;;;;;;;17.63;15.52;;;;;;;23.97;90.70;101161.97;5003197;28;20473;-82
2021/07/17 08:07:53;;;;;;;24.30;15.73;;;;;;;23.92;90.54;101153.56;4992110;28;20041;-79
2021/07/17 08:10:21;;;;;;;19.35;15.23;;;;;;;24.08;90.32;101157.28;5028455;28;20077;-82
2021/07/17 08:12:49;;;;;;;25.17;15.57;;;;;;;24.09;89.65;101164.34;5004356;28;20060;-81
2021/07/17 08:15:17;;;;;;;18.52;13.82;;;;;;;24.38;88.49;101159.38;5012435;28;20048;-80
2021/07/17 08:17:44;;;;;;;16.23;13.68;;;;;;;24.92;83.90;101165.06;5023277;28;20060;-81
2021/07/17 08:20:12;;;;;;;17.73;13.30;;;;;;;24.52;85.48;101168.63;5035670;28;20128;-82
2021/07/17 08:22:40;;;;;;;17.55;13.07;;;;;;;24.34;86.38;101168.75;5026474;28;20392;-81
2021/07/17 08:25:08;;;;;;;16.55;13.98;;;;;;;24.32;86.97;101168.09;5035509;28;20472;-83
2021/07/17 08:27:36;;;;;;;19.08;13.93;;;;;;;24.71;84.56;101172.84;5007609;28;20472;-84
2021/07/17 08:30:04;;;;;;;16.70;14.25;;;;;;;25.18;82.81;101178.34;5007411;28;20048;-80
2021/07/17 08:32:31;;;;;;;17.15;13.18;;;;;;;24.68;83.72;101174.03;4991913;28;20132;-81
2021/07/17 08:34:59;;;;;;;16.17;13.60;;;;;;;24.49;85.08;101180.56;5038059;28;20125;-81
2021/07/17 08:37:26;;;;;;;16.80;13.73;;;;;;;24.36;87.39;101182.03;5030015;28;20497;-80
2021/07/17 08:39:53;;;;;;;14.77;12.65;;;;;;;24.75;84.44;101171.50;4997537;28;20392;-81
2021/07/17 08:42:21;;;;;;;18.52;13.77;;;;;;;24.71;83.85;101176.34;5012133;28;20389;-83
2021/07/17 08:44:49;;;;;;;15.82;14.15;;;;;;;24.66;84.02;101183.28;5037288;28;20060;-83
2021/07/17 08:47:17;;;;;;;17.50;13.25;;;;;;;24.57;84.40;101185.13;5017527;28;20060;-83
2021/07/17 08:49:45;;;;;;;19.52;14.82;;;;;;;24.86;82.76;101181.94;5001067;28;20603;-81
2021/07/17 08:52:13;;;;;;;17.83;14.30;;;;;;;23.95;88.66;101184.66;5001076;28;20044;-82
2021/07/17 08:54:41;;;;;;;14.95;13.07;;;;;;;24.53;85.22;101185.63;5017034;28;20132;-81
2021/07/17 08:57:12;;;;;;;20.98;14.25;;;;;;;24.32;85.30;101178.88;5005674;28;20041;-83
2021/07/17 08:59:40;;;;;;;17.70;13.23;;;;;;;23.76;88.77;101180.41;5028986;28;20091;-81
2021/07/17 09:02:08;;;;;;;14.60;13.10;;;;;;;23.49;90.87;101197.56;5015331;28;20056;-85
2021/07/17 09:04:36;;;;;;;19.33;14.95;;;;;;;23.30;92.48;101193.28;5024603;28;20143;-80
2021/07/17 09:07:06;;;;;;;19.05;15.23;;;;;;;23.35;91.96;101195.47;5003915;28;20134;-83
2021/07/17 09:09:38;;;;;;;17.67;15.75;;;;;;;23.42;91.96;101194.69;5027984;28;20068;-82
2021/07/17 09:12:24;;;;;;;17.25;15.23;;;;;;;23.82;89.76;101195.03;5026062;28;20400;-81
2021/07/17 09:14:52;;;;;;;16.77;15.00;;;;;;;23.99;87.71;101192.22;5017725;28;20072;-83
2021/07/17 09:17:27;;;;;;;18.15;13.65;;;;;;;24.11;86.33;101191.94;5016574;28;20516;-82
2021/07/17 09:19:57;;;;;;;18.52;14.88;;;;;;;24.53;84.62;101191.84;5021956;28;20479;-80
2021/07/17 09:22:35;;;;;;;16.13;14.35;;;;;;;24.98;82.05;101188.63;5015190;28;20158;-80
2021/07/17 09:25:10;;;;;;;22.05;14.52;;;;;;;25.58;79.58;101181.06;4991179;28;20053;-84
2021/07/17 09:27:39;;;;;;;17.95;13.30;;;;;;;25.28;79.52;101188.09;5007197;28;20378;-83
2021/07/17 09:30:26;;;;;;;15.55;13.45;;;;;;;25.00;80.91;101186.63;5017846;28;20061;-79
2021/07/17 09:33:01;;;;;;;18.55;13.48;;;;;;;24.67;82.66;101182.25;4984033;28;20049;-82
2021/07/17 09:35:30;;;;;;;15.90;13.50;;;;;;;24.65;82.48;101182.44;5004066;28;20384;-79
2021/07/17 09:38:00;;;;;;;15.13;13.52;;;;;;;24.65;82.84;101186.97;5010137;28;20053;-81
2021/07/17 09:40:44;;;;;;;15.52;13.35;;;;;;;24.72;81.67;101182.59;4995595;28;20060;-81
2021/07/17 09:43:12;;;;;;;17.52;13.82;;;;;;;24.67;82.74;101179.56;4992812;28;20045;-84
2021/07/17 09:45:40;;;;;;;20.33;12.98;;;;;;;25.14;81.29;101186.97;4992763;28;20081;-82
2021/07/17 09:48:30;;;;;;;14.98;12.45;;;;;;;24.76;82.80;101184.78;5014782;28;20083;-82
2021/07/17 09:51:03;;;;;;;17.23;14.25;;;;;;;24.56;83.28;101185.28;5019555;28;20080;-80
2021/07/17 09:53:54;;;;;;;14.95;13.30;;;;;;;23.92;87.20;101179.63;5006376;28;20152;-80
2021/07/17 09:56:23;;;;;;;15.52;13.93;;;;;;;24.12;86.80;101181.00;5018848;28;20134;-79
2021/07/17 09:58:54;;;;;;;17.98;14.73;;;;;;;24.26;85.58;101179.50;5029210;28;20041;-81
2021/07/17 10:01:24;;;;;;;17.20;14.07;;;;;;;24.53;83.91;101173.00;5014391;28;20058;-83
2021/07/17 10:03:57;;;;;;;17.02;15.23;;;;;;;24.83;82.92;101174.19;5012803;28;20107;-82
2021/07/17 10:06:35;;;;;;;18.27;13.95;;;;;;;25.61;79.75;101176.19;5012474;28;20184;-85
2021/07/17 10:09:08;;;;;;;15.98;13.02;;;;;;;26.46;75.45;101170.00;4994005;28;20052;-81
2021/07/17 10:11:37;;;;;;;18.55;14.10;;;;;;;26.60;72.96;101169.19;5016117;28;20584;-84
2021/07/17 10:14:18;;;;;;;14.98;12.73;;;;;;;27.14;70.39;101169.03;4997342;28;20046;-83
2021/07/17 10:16:49;;;;;;;18.10;13.32;;;;;;;27.82;67.71;101174.31;4988832;28;20160;-79
2021/07/17 10:19:17;;;;;;;17.33;12.70;;;;;;;27.79;66.56;101167.44;5026488;28;20042;-83
2021/07/17 10:21:45;;;;;;;13.80;12.38;;;;;;;27.84;66.52;101167.69;4984273;28;20473;-83
2021/07/17 10:24:13;;;;;;;14.45;12.18;;;;;;;27.67;67.47;101161.63;5022147;28;20050;-79
2021/07/17 10:26:41;;;;;;;13.68;12.27;;;;;;;27.23;68.36;101158.97;5015636;28;20038;-80
2021/07/17 10:29:10;;;;;;;17.27;13.07;;;;;;;26.69;71.30;101154.59;5010086;28;20046;-82
2021/07/17 10:31:39;;;;;;;14.77;13.23;;;;;;;26.42;71.45;101157.84;4993775;28;20045;-81
2021/07/17 10:34:07;;;;;;;14.50;12.98;;;;;;;25.86;73.37;101166.16;5012293;28;20392;-83
2021/07/17 10:36:41;;;;;;;14.82;13.30;;;;;;;26.34;72.31;101147.94;4999990;28;20052;-83
2021/07/17 10:39:11;;;;;;;16.13;13.45;;;;;;;26.10;73.33;101150.81;5006390;28;20491;-81
2021/07/17 10:41:40;;;;;;;19.00;13.82;;;;;;;26.92;70.16;101142.88;5029541;28;20138;-81
2021/07/17 10:44:08;;;;;;;16.35;12.45;;;;;;;27.23;68.54;101134.63;5001863;28;20053;-86
2021/07/17 10:46:43;;;;;;;15.73;13.82;;;;;;;27.58;67.61;101133.03;4985840;28;20465;-82
2021/07/17 10:49:12;;;;;;;14.63;12.88;;;;;;;27.19;68.00;101144.97;5030826;28;20472;-81
2021/07/17 10:51:41;;;;;;;15.43;13.30;;;;;;;27.07;69.15;101130.25;5009729;28;20038;-82
2021/07/17 10:54:12;;;;;;;14.43;13.02;;;;;;;27.13;67.80;101143.03;5020454;28;20057;-81
2021/07/17 10:56:47;;;;;;;18.02;13.82;;;;;;;26.41;71.19;101131.88;5018290;28;20103;-83
2021/07/17 10:59:43;;;;;;;14.45;12.95;;;;;;;27.24;67.63;101131.78;4991270;28;20045;-81
2021/07/17 11:02:21;;;;;;;16.70;13.23;;;;;;;27.78;65.55;101125.16;5028014;28;20111;-82
2021/07/17 11:04:49;;;;;;;17.33;13.98;;;;;;;26.66;69.84;101119.88;5034944;28;20163;-83
2021/07/17 11:07:16;;;;;;;18.80;13.65;;;;;;;28.13;65.60;101117.19;5023669;28;20048;-81
2021/07/17 11:09:58;;;;;;;13.70;12.32;;;;;;;27.89;65.18;101121.97;4991680;28;20053;-83
2021/07/17 11:12:31;;;;;;;18.88;13.57;;;;;;;27.44;67.14;101123.06;5017596;28;20049;-81
2021/07/17 11:15:09;;;;;;;14.63;13.23;;;;;;;27.52;66.27;101120.25;5007690;28;20116;-80